Flight Track Log - Related Links

Times and Time Zones

All times are in EST time to prevent confusion due to time zone crossing. See the N757AN flight status page for this flight to view local times or setup timezone preferences in your user account.

Time Position Orientation Groundspeed Altitude Reporting Facility
EST Latitude Longitude Course Direction KTS MPH feet Rate Location/Type
Sun 11:17:00 PM -23.0007 -46.7519 329° Northwest  Level FlightAware Approximate
Sun 11:17:23 PM -23.2849 -46.4291 329° Northwest 300 345 8,500  Level FlightAware ADS-B
Sun 11:19:23 PM -23.1239 -46.5003 326° Northwest 316 364 12,400 1,983 Climbing FlightAware ADS-B
Sun 11:21:22 PM -22.9581 -46.5668 325° Northwest 363 418 16,400 1,900 Climbing FlightAware ADS-B
Sun 11:23:23 PM -22.7745 -46.6801 324° Northwest 428 493 20,000 1,800 Climbing FlightAware ADS-B
Sun 11:25:22 PM -22.6471 -46.9111 324° Northwest 463 533 23,600 1,750 Climbing FlightAware ADS-B
Sun 11:27:23 PM -22.4580 -47.0926 327° Northwest 477 549 27,000 1,600 Climbing FlightAware ADS-B
Sun 11:29:22 PM -22.1863 -47.1219 329° Northwest 494 568 30,000 1,613 Climbing FlightAware ADS-B
Sun 11:31:21 PM -21.9182 -47.1616 322° Northwest 486 559 33,400 1,545 Climbing FlightAware ADS-B
Sun 11:33:15 PM -21.6716 -47.1979 324° Northwest 477 549 36,000 700 Climbing FlightAware ADS-B
Sun 11:35:04 PM -21.4261 -47.2338 324° Northwest 478 550 36,000 11 Level FlightAware ADS-B
Sun 11:37:00 PM -21.2287 -47.3866 324° Northwest  Level Estimated
Sun 11:38:00 PM -21.1266 -47.4654 324° Northwest  Level Estimated
Sun 11:39:00 PM -21.0244 -47.5441 324° Northwest  Level Estimated
Sun 11:40:00 PM -20.9222 -47.6227 324° Northwest  Level Estimated
Sun 11:41:00 PM -20.8199 -47.7012 324° Northwest  Level Estimated
Sun 11:42:00 PM -20.7176 -47.7796 324° Northwest  Level Estimated
Sun 11:43:00 PM -20.6153 -47.8579 324° Northwest  Level Estimated
Sun 11:44:00 PM -20.5129 -47.9361 324° Northwest  Level Estimated
Sun 11:45:00 PM -20.4105 -48.0142 324° Northwest  Level Estimated
Sun 11:46:00 PM -20.3080 -48.0922 324° Northwest  Level Estimated
Sun 11:47:00 PM -20.2056 -48.1701 324° Northwest  Level Estimated
Sun 11:48:00 PM -20.1031 -48.2479 325° Northwest  Level Estimated
Sun 11:49:00 PM -20.0005 -48.3255 325° Northwest  Level Estimated
Sun 11:50:00 PM -19.8979 -48.4031 325° Northwest  Level Estimated
Sun 11:51:00 PM -19.7953 -48.4806 325° Northwest  Level Estimated
Sun 11:52:00 PM -19.6927 -48.5579 325° Northwest  Level Estimated
Sun 11:53:00 PM -19.5900 -48.6352 325° Northwest  Level Estimated
Sun 11:54:00 PM -19.4873 -48.7124 325° Northwest  Level Estimated
Sun 11:55:00 PM -19.3846 -48.7895 325° Northwest  Level Estimated
Sun 11:56:00 PM -19.2818 -48.8665 325° Northwest  Level Estimated
Sun 11:57:00 PM -19.1790 -48.9434 325° Northwest  Level Estimated
Sun 11:58:00 PM -19.0761 -49.0201 325° Northwest  Level Estimated
Sun 11:59:00 PM -18.9733 -49.0968 325° Northwest  Level Estimated
Mon 12:00:00 AM -18.8704 -49.1734 325° Northwest  Level Estimated
Mon 12:01:00 AM -18.7674 -49.2500 325° Northwest  Level Estimated
Mon 12:02:00 AM -18.6645 -49.3264 325° Northwest  Level Estimated
Mon 12:03:00 AM -18.5615 -49.4027 325° Northwest  Level Estimated
Mon 12:04:00 AM -18.4585 -49.4789 325° Northwest  Level Estimated
Mon 12:05:00 AM -18.3554 -49.5550 325° Northwest  Level Estimated
Mon 12:06:00 AM -18.2523 -49.6311 325° Northwest  Level Estimated
Mon 12:07:00 AM -18.1492 -49.7070 325° Northwest  Level Estimated
Mon 12:08:00 AM -18.0460 -49.7829 325° Northwest  Level Estimated
Mon 12:09:00 AM -17.9429 -49.8587 325° Northwest  Level Estimated
Mon 12:10:00 AM -17.8396 -49.9344 325° Northwest  Level Estimated
Mon 12:11:00 AM -17.7364 -50.0100 325° Northwest  Level Estimated
Mon 12:12:00 AM -17.6332 -50.0855 325° Northwest  Level Estimated
Mon 12:13:00 AM -17.5299 -50.1609 325° Northwest  Level Estimated
Mon 12:14:00 AM -17.4265 -50.2363 325° Northwest  Level Estimated
Mon 12:15:00 AM -17.3234 -50.3114 325° Northwest  Level Estimated
Mon 12:16:00 AM -17.2202 -50.3864 325° Northwest  Level Estimated
Mon 12:17:00 AM -17.1171 -50.4613 325° Northwest  Level Estimated
Mon 12:18:00 AM -17.0138 -50.5361 325° Northwest  Level Estimated
Mon 12:19:00 AM -16.9106 -50.6109 325° Northwest  Level Estimated
Mon 12:20:00 AM -16.8073 -50.6856 325° Northwest  Level Estimated
Mon 12:21:00 AM -16.7040 -50.7602 325° Northwest  Level Estimated
Mon 12:22:00 AM -16.6007 -50.8347 325° Northwest  Level Estimated
Mon 12:23:00 AM -16.4974 -50.9091 325° Northwest  Level Estimated
Mon 12:24:00 AM -16.3940 -50.9835 325° Northwest  Level Estimated
Mon 12:25:00 AM -16.2906 -51.0578 325° Northwest  Level Estimated
Mon 12:26:00 AM -16.1871 -51.1320 325° Northwest  Level Estimated
Mon 12:27:00 AM -16.0837 -51.2061 325° Northwest  Level Estimated
Mon 12:28:00 AM -15.9802 -51.2802 325° Northwest  Level Estimated
Mon 12:29:00 AM -15.8767 -51.3541 325° Northwest  Level Estimated
Mon 12:30:00 AM -15.7732 -51.4280 326° Northwest  Level Estimated
Mon 12:31:00 AM -15.6696 -51.5019 326° Northwest  Level Estimated
Mon 12:32:00 AM -15.5660 -51.5756 326° Northwest  Level Estimated
Mon 12:33:00 AM -15.4624 -51.6493 326° Northwest  Level Estimated
Mon 12:34:00 AM -15.3588 -51.7229 326° Northwest  Level Estimated
Mon 12:35:00 AM -15.2551 -51.7964 326° Northwest  Level Estimated
Mon 12:36:00 AM -15.1515 -51.8699 326° Northwest  Level Estimated
Mon 12:37:00 AM -15.0478 -51.9432 326° Northwest  Level Estimated
Mon 12:38:00 AM -14.9440 -52.0165 326° Northwest  Level Estimated
Mon 12:39:00 AM -14.8403 -52.0898 326° Northwest  Level Estimated
Mon 12:40:00 AM -14.7365 -52.1629 326° Northwest  Level Estimated
Mon 12:41:00 AM -14.6327 -52.2360 326° Northwest  Level Estimated
Mon 12:42:00 AM -14.5289 -52.3091 326° Northwest  Level Estimated
Mon 12:43:00 AM -14.4251 -52.3820 326° Northwest  Level Estimated
Mon 12:44:00 AM -14.3212 -52.4549 326° Northwest  Level Estimated
Mon 12:45:00 AM -14.2173 -52.5278 326° Northwest  Level Estimated
Mon 12:46:00 AM -14.1134 -52.6005 326° Northwest  Level Estimated
Mon 12:47:00 AM -14.0095 -52.6732 326° Northwest  Level Estimated
Mon 12:48:00 AM -13.9056 -52.7458 326° Northwest  Level Estimated
Mon 12:49:00 AM -13.8016 -52.8184 326° Northwest  Level Estimated
Mon 12:50:00 AM -13.6976 -52.8909 326° Northwest  Level Estimated
Mon 12:51:00 AM -13.5936 -52.9633 326° Northwest  Level Estimated
Mon 12:52:00 AM -13.4895 -53.0357 326° Northwest  Level Estimated
Mon 12:53:00 AM -13.3855 -53.1080 326° Northwest  Level Estimated
Mon 12:54:00 AM -13.2814 -53.1802 326° Northwest  Level Estimated
Mon 12:55:00 AM -13.1773 -53.2524 326° Northwest  Level Estimated
Mon 12:56:00 AM -13.0732 -53.3246 326° Northwest  Level Estimated
Mon 12:57:00 AM -12.9691 -53.3966 326° Northwest  Level Estimated
Mon 12:58:00 AM -12.8649 -53.4686 326° Northwest  Level Estimated
Mon 12:59:00 AM -12.7607 -53.5406 326° Northwest  Level Estimated
Mon 01:00:00 AM -12.6565 -53.6124 326° Northwest  Level Estimated
Mon 01:01:00 AM -12.5523 -53.6842 326° Northwest  Level Estimated
Mon 01:02:00 AM -12.4481 -53.7560 326° Northwest  Level Estimated
Mon 01:03:00 AM -12.3438 -53.8277 326° Northwest  Level Estimated
Mon 01:04:00 AM -12.2396 -53.8994 326° Northwest  Level Estimated
Mon 01:05:00 AM -12.1353 -53.9710 326° Northwest  Level Estimated
Mon 01:06:00 AM -12.0312 -54.0424 326° Northwest  Level Estimated
Mon 01:07:00 AM -11.9271 -54.1137 326° Northwest  Level Estimated
Mon 01:08:00 AM -11.8229 -54.1850 326° Northwest  Level Estimated
Mon 01:09:00 AM -11.7188 -54.2562 326° Northwest  Level Estimated
Mon 01:10:00 AM -11.6146 -54.3274 326° Northwest  Level Estimated
Mon 01:11:00 AM -11.5105 -54.3985 326° Northwest  Level Estimated
Mon 01:12:00 AM -11.4063 -54.4695 326° Northwest  Level Estimated
Mon 01:13:00 AM -11.3020 -54.5405 326° Northwest  Level Estimated
Mon 01:14:00 AM -11.1978 -54.6115 326° Northwest  Level Estimated
Mon 01:15:00 AM -11.0936 -54.6824 326° Northwest  Level Estimated
Mon 01:16:00 AM -10.9893 -54.7533 326° Northwest  Level Estimated
Mon 01:17:00 AM -10.8850 -54.8241 326° Northwest  Level Estimated
Mon 01:18:00 AM -10.7807 -54.8948 326° Northwest  Level Estimated
Mon 01:19:00 AM -10.6764 -54.9655 326° Northwest  Level Estimated
Mon 01:20:00 AM -10.5721 -55.0362 326° Northwest  Level Estimated
Mon 01:21:00 AM -10.4677 -55.1068 326° Northwest  Level Estimated
Mon 01:22:00 AM -10.3634 -55.1774 326° Northwest  Level Estimated
Mon 01:23:00 AM -10.2590 -55.2479 326° Northwest  Level Estimated
Mon 01:24:00 AM -10.1546 -55.3184 326° Northwest  Level Estimated
Mon 01:25:00 AM -10.0502 -55.3888 326° Northwest  Level Estimated
Mon 01:26:00 AM -9.9458 -55.4592 326° Northwest  Level Estimated
Mon 01:27:00 AM -9.8414 -55.5295 326° Northwest  Level Estimated
Mon 01:28:00 AM -9.7369 -55.5998 326° Northwest  Level Estimated
Mon 01:29:00 AM -9.6325 -55.6701 326° Northwest  Level Estimated
Mon 01:30:00 AM -9.5280 -55.7403 326° Northwest  Level Estimated
Mon 01:31:00 AM -9.4235 -55.8104 326° Northwest  Level Estimated
Mon 01:32:00 AM -9.3190 -55.8806 326° Northwest  Level Estimated
Mon 01:33:00 AM -9.2145 -55.9506 327° Northwest  Level Estimated
Mon 01:34:00 AM -9.1099 -56.0207 327° Northwest  Level Estimated
Mon 01:35:00 AM -9.0054 -56.0906 327° Northwest  Level Estimated
Mon 01:36:00 AM -8.9008 -56.1606 327° Northwest  Level Estimated
Mon 01:37:00 AM -8.7963 -56.2305 327° Northwest  Level Estimated
Mon 01:38:00 AM -8.6917 -56.3004 327° Northwest  Level Estimated
Mon 01:39:00 AM -8.5871 -56.3702 327° Northwest  Level Estimated
Mon 01:40:00 AM -8.4824 -56.4400 327° Northwest  Level Estimated
Mon 01:41:00 AM -8.3778 -56.5098 327° Northwest  Level Estimated
Mon 01:42:00 AM -8.2732 -56.5795 327° Northwest  Level Estimated
Mon 01:43:00 AM -8.1685 -56.6492 327° Northwest  Level Estimated
Mon 01:44:00 AM -8.0639 -56.7188 327° Northwest  Level Estimated
Mon 01:45:00 AM -7.9592 -56.7884 327° Northwest  Level Estimated
Mon 01:46:00 AM -7.8545 -56.8580 327° Northwest  Level Estimated
Mon 01:47:00 AM -7.7498 -56.9276 327° Northwest  Level Estimated
Mon 01:48:00 AM -7.6451 -56.9971 327° Northwest  Level Estimated
Mon 01:49:00 AM -7.5404 -57.0665 327° Northwest  Level Estimated
Mon 01:50:00 AM -7.4357 -57.1360 327° Northwest  Level Estimated
Mon 01:51:00 AM -7.3309 -57.2054 327° Northwest  Level Estimated
Mon 01:52:00 AM -7.2262 -57.2747 327° Northwest  Level Estimated
Mon 01:53:00 AM -7.1214 -57.3441 327° Northwest  Level Estimated
Mon 01:54:00 AM -7.0167 -57.4134 327° Northwest  Level Estimated
Mon 01:55:00 AM -6.9119 -57.4827 327° Northwest  Level Estimated
Mon 01:56:00 AM -6.8071 -57.5519 327° Northwest  Level Estimated
Mon 01:57:00 AM -6.7023 -57.6211 327° Northwest  Level Estimated
Mon 01:58:00 AM -6.5975 -57.6903 327° Northwest  Level Estimated
Mon 01:59:00 AM -6.4927 -57.7595 327° Northwest  Level Estimated
Mon 02:00:00 AM -6.3878 -57.8286 327° Northwest  Level Estimated
Mon 02:01:00 AM -6.2830 -57.8977 327° Northwest  Level Estimated
Mon 02:02:00 AM -6.1781 -57.9668 327° Northwest  Level Estimated
Mon 02:03:00 AM -6.0733 -58.0358 327° Northwest  Level Estimated
Mon 02:04:00 AM -5.9684 -58.1049 327° Northwest  Level Estimated
Mon 02:05:00 AM -5.8636 -58.1738 327° Northwest  Level Estimated
Mon 02:06:00 AM -5.7587 -58.2428 327° Northwest  Level Estimated
Mon 02:07:00 AM -5.6538 -58.3117 327° Northwest  Level Estimated
Mon 02:08:00 AM -5.5489 -58.3807 327° Northwest  Level Estimated
Mon 02:09:00 AM -5.4440 -58.4496 327° Northwest  Level Estimated
Mon 02:10:00 AM -5.3391 -58.5184 327° Northwest  Level Estimated
Mon 02:11:00 AM -5.2341 -58.5873 327° Northwest  Level Estimated
Mon 02:12:00 AM -5.1292 -58.6561 327° Northwest  Level Estimated
Mon 02:13:00 AM -5.0243 -58.7249 327° Northwest  Level Estimated
Mon 02:14:00 AM -4.9193 -58.7937 327° Northwest  Level Estimated
Mon 02:15:00 AM -4.8144 -58.8624 327° Northwest  Level Estimated
Mon 02:16:00 AM -4.7094 -58.9311 327° Northwest  Level Estimated
Mon 02:17:00 AM -4.6045 -58.9999 327° Northwest  Level Estimated
Mon 02:18:00 AM -4.4995 -59.0686 327° Northwest  Level Estimated
Mon 02:19:00 AM -4.3945 -59.1372 327° Northwest  Level Estimated
Mon 02:20:00 AM -4.2895 -59.2059 327° Northwest  Level Estimated
Mon 02:21:00 AM -4.1845 -59.2745 327° Northwest  Level Estimated
Mon 02:22:00 AM -4.0795 -59.3431 327° Northwest  Level Estimated
Mon 02:23:00 AM -3.9745 -59.4117 327° Northwest  Level Estimated
Mon 02:24:00 AM -3.8695 -59.4803 327° Northwest  Level Estimated
Mon 02:25:00 AM -3.7645 -59.5489 327° Northwest  Level Estimated
Mon 02:26:00 AM -3.6595 -59.6174 327° Northwest  Level Estimated
Mon 02:27:00 AM -3.5545 -59.6859 327° Northwest  Level Estimated
Mon 02:28:00 AM -3.4495 -59.7544 327° Northwest  Level Estimated
Mon 02:29:00 AM -3.3444 -59.8229 327° Northwest  Level Estimated
Mon 02:30:00 AM -3.2394 -59.8914 327° Northwest  Level Estimated
Mon 02:31:00 AM -3.1343 -59.9599 327° Northwest  Level Estimated
Mon 02:32:00 AM -3.0293 -60.0284 327° Northwest  Level Estimated
Mon 02:33:00 AM -2.9242 -60.0968 327° Northwest  Level Estimated
Mon 02:34:00 AM -2.8192 -60.1652 327° Northwest  Level Estimated
Mon 02:35:00 AM -2.7141 -60.2336 327° Northwest  Level Estimated
Mon 02:36:00 AM -2.6091 -60.3021 327° Northwest  Level Estimated
Mon 02:37:00 AM -2.5040 -60.3704 327° Northwest  Level Estimated
Mon 02:38:00 AM -2.3989 -60.4388 327° Northwest  Level Estimated
Mon 02:39:00 AM -2.2938 -60.5072 327° Northwest  Level Estimated
Mon 02:40:00 AM -2.1888 -60.5756 327° Northwest  Level Estimated
Mon 02:41:00 AM -2.0837 -60.6439 327° Northwest  Level Estimated
Mon 02:42:00 AM -1.9786 -60.7122 327° Northwest  Level Estimated
Mon 02:43:00 AM -1.8735 -60.7806 327° Northwest  Level Estimated
Mon 02:44:00 AM -1.7684 -60.8489 327° Northwest  Level Estimated
Mon 02:45:00 AM -1.6633 -60.9172 327° Northwest  Level Estimated
Mon 02:46:00 AM -1.5582 -60.9855 327° Northwest  Level Estimated
Mon 02:47:00 AM -1.4532 -61.0538 327° Northwest  Level Estimated
Mon 02:48:00 AM -1.3480 -61.1222 327° Northwest  Level Estimated
Mon 02:49:00 AM -1.2429 -61.1904 327° Northwest  Level Estimated
Mon 02:50:00 AM -1.1379 -61.2587 327° Northwest  Level Estimated
Mon 02:51:00 AM -1.0328 -61.3270 327° Northwest  Level Estimated
Mon 02:52:00 AM -0.9276 -61.3953 327° Northwest  Level Estimated
Mon 02:53:00 AM -0.8225 -61.4636 327° Northwest  Level Estimated
Mon 02:54:00 AM -0.7174 -61.5318 327° Northwest  Level Estimated
Mon 02:55:00 AM -0.6123 -61.6001 327° Northwest  Level Estimated
Mon 02:56:00 AM -0.5072 -61.6684 327° Northwest  Level Estimated
Mon 02:57:00 AM -0.4021 -61.7366 327° Northwest  Level Estimated
Mon 02:58:00 AM -0.2972 -61.8047 327° Northwest  Level Estimated
Mon 02:59:00 AM -0.1923 -61.8729 327° Northwest  Level Estimated
Mon 03:00:00 AM -0.0874 -61.9410 327° Northwest  Level Estimated
Mon 03:01:00 AM 0.0175 -62.0091 327° Northwest  Level Estimated
Mon 03:02:00 AM 0.1223 -62.0772 327° Northwest  Level Estimated
Mon 03:03:00 AM 0.2272 -62.1454 327° Northwest  Level Estimated
Mon 03:04:00 AM 0.3321 -62.2135 327° Northwest  Level Estimated
Mon 03:05:00 AM 0.4370 -62.2816 327° Northwest  Level Estimated
Mon 03:06:00 AM 0.5419 -62.3497 327° Northwest  Level Estimated
Mon 03:07:00 AM 0.6468 -62.4178 327° Northwest  Level Estimated
Mon 03:08:00 AM 0.7517 -62.4860 327° Northwest  Level Estimated
Mon 03:09:00 AM 0.8566 -62.5541 327° Northwest  Level Estimated
Mon 03:10:00 AM 0.9615 -62.6222 327° Northwest  Level Estimated
Mon 03:11:00 AM 1.0664 -62.6904 327° Northwest  Level Estimated
Mon 03:12:00 AM 1.1712 -62.7585 327° Northwest  Level Estimated
Mon 03:13:00 AM 1.2761 -62.8266 327° Northwest  Level Estimated
Mon 03:14:00 AM 1.3810 -62.8948 327° Northwest  Level Estimated
Mon 03:15:00 AM 1.4859 -62.9630 327° Northwest  Level Estimated
Mon 03:16:00 AM 1.5908 -63.0311 327° Northwest  Level Estimated
Mon 03:17:00 AM 1.6956 -63.0993 327° Northwest  Level Estimated
Mon 03:18:00 AM 1.8005 -63.1675 327° Northwest  Level Estimated
Mon 03:19:00 AM 1.9054 -63.2357 327° Northwest  Level Estimated
Mon 03:20:00 AM 2.0102 -63.3039 327° Northwest  Level Estimated
Mon 03:21:00 AM 2.1158 -63.3725 327° Northwest  Level Estimated
Mon 03:22:00 AM 2.2213 -63.4411 327° Northwest  Level Estimated
Mon 03:23:00 AM 2.3268 -63.5098 327° Northwest  Level Estimated
Mon 03:24:00 AM 2.4323 -63.5784 327° Northwest  Level Estimated
Mon 03:25:00 AM 2.5378 -63.6471 327° Northwest  Level Estimated
Mon 03:26:00 AM 2.6433 -63.7158 327° Northwest  Level Estimated
Mon 03:27:00 AM 2.7488 -63.7845 327° Northwest  Level Estimated
Mon 03:28:00 AM 2.8543 -63.8532 327° Northwest  Level Estimated
Mon 03:29:00 AM 2.9598 -63.9219 327° Northwest  Level Estimated
Mon 03:30:00 AM 3.0653 -63.9907 327° Northwest  Level Estimated
Mon 03:31:00 AM 3.1708 -64.0594 327° Northwest  Level Estimated
Mon 03:32:00 AM 3.2763 -64.1282 327° Northwest  Level Estimated
Mon 03:33:00 AM 3.3818 -64.1970 327° Northwest  Level Estimated
Mon 03:34:00 AM 3.4872 -64.2657 327° Northwest  Level Estimated
Mon 03:35:00 AM 3.5927 -64.3345 327° Northwest  Level Estimated
Mon 03:36:00 AM 3.6981 -64.4034 327° Northwest  Level Estimated
Mon 03:37:00 AM 3.8036 -64.4722 327° Northwest  Level Estimated
Mon 03:38:00 AM 3.9091 -64.5411 327° Northwest  Level Estimated
Mon 03:39:00 AM 4.0145 -64.6099 327° Northwest  Level Estimated
Mon 03:40:00 AM 4.1199 -64.6788 327° Northwest  Level Estimated
Mon 03:41:00 AM 4.2254 -64.7477 327° Northwest  Level Estimated
Mon 03:42:00 AM 4.3308 -64.8167 327° Northwest  Level Estimated
Mon 03:43:00 AM 4.4362 -64.8856 327° Northwest  Level Estimated
Mon 03:44:00 AM 4.5416 -64.9546 327° Northwest  Level Estimated
Mon 03:45:00 AM 4.6470 -65.0236 327° Northwest  Level Estimated
Mon 03:46:00 AM 4.7524 -65.0926 327° Northwest  Level Estimated
Mon 03:47:00 AM 4.8578 -65.1616 327° Northwest  Level Estimated
Mon 03:48:00 AM 4.9632 -65.2307 327° Northwest  Level Estimated
Mon 03:49:00 AM 5.0686 -65.2997 327° Northwest  Level Estimated
Mon 03:50:00 AM 5.1740 -65.3688 327° Northwest  Level Estimated
Mon 03:51:00 AM 5.2793 -65.4380 327° Northwest  Level Estimated
Mon 03:52:00 AM 5.3847 -65.5071 327° Northwest  Level Estimated
Mon 03:53:00 AM 5.4900 -65.5763 327° Northwest  Level Estimated
Mon 03:54:00 AM 5.5954 -65.6454 327° Northwest  Level Estimated
Mon 03:55:00 AM 5.7007 -65.7147 327° Northwest  Level Estimated
Mon 03:56:00 AM 5.8060 -65.7839 327° Northwest  Level Estimated
Mon 03:57:00 AM 5.9113 -65.8532 327° Northwest  Level Estimated
Mon 03:58:00 AM 6.0167 -65.9225 327° Northwest  Level Estimated
Mon 03:59:00 AM 6.1220 -65.9918 327° Northwest  Level Estimated
Mon 04:00:00 AM 6.2273 -66.0611 327° Northwest  Level Estimated
Mon 04:01:00 AM 6.3325 -66.1305 327° Northwest  Level Estimated
Mon 04:02:00 AM 6.4378 -66.1999 327° Northwest  Level Estimated
Mon 04:03:00 AM 6.5431 -66.2693 327° Northwest  Level Estimated
Mon 04:04:00 AM 6.6483 -66.3388 327° Northwest  Level Estimated
Mon 04:05:00 AM 6.7536 -66.4083 327° Northwest  Level Estimated
Mon 04:06:00 AM 6.8588 -66.4778 327° Northwest  Level Estimated
Mon 04:07:00 AM 6.9640 -66.5473 327° Northwest  Level Estimated
Mon 04:08:00 AM 7.0692 -66.6169 327° Northwest  Level Estimated
Mon 04:09:00 AM 7.1744 -66.6865 327° Northwest  Level Estimated
Mon 04:10:00 AM 7.2796 -66.7562 327° Northwest  Level Estimated
Mon 04:11:00 AM 7.3848 -66.8259 327° Northwest  Level Estimated
Mon 04:12:00 AM 7.4900 -66.8956 327° Northwest  Level Estimated
Mon 04:13:00 AM 7.5951 -66.9653 327° Northwest  Level Estimated
Mon 04:14:00 AM 7.7003 -67.0351 327° Northwest  Level Estimated
Mon 04:15:00 AM 7.8054 -67.1049 327° Northwest  Level Estimated
Mon 04:16:00 AM 7.9105 -67.1748 327° Northwest  Level Estimated
Mon 04:17:00 AM 8.0156 -67.2447 327° Northwest  Level Estimated
Mon 04:18:00 AM 8.1207 -67.3146 327° Northwest  Level Estimated
Mon 04:19:00 AM 8.2258 -67.3845 327° Northwest  Level Estimated
Mon 04:20:00 AM 8.3309 -67.4545 327° Northwest  Level Estimated
Mon 04:21:00 AM 8.4360 -67.5246 327° Northwest  Level Estimated
Mon 04:22:00 AM 8.5410 -67.5946 327° Northwest  Level Estimated
Mon 04:23:00 AM 8.6461 -67.6647 327° Northwest  Level Estimated
Mon 04:24:00 AM 8.7511 -67.7349 327° Northwest  Level Estimated
Mon 04:25:00 AM 8.8561 -67.8051 327° Northwest  Level Estimated
Mon 04:26:00 AM 8.9611 -67.8753 327° Northwest  Level Estimated
Mon 04:27:00 AM 9.0661 -67.9456 327° Northwest  Level Estimated
Mon 04:28:00 AM 9.1711 -68.0159 327° Northwest  Level Estimated
Mon 04:29:00 AM 9.2760 -68.0863 327° Northwest  Level Estimated
Mon 04:30:00 AM 9.3810 -68.1566 327° Northwest  Level Estimated
Mon 04:31:00 AM 9.4859 -68.2271 326° Northwest  Level Estimated
Mon 04:32:00 AM 9.5908 -68.2976 326° Northwest  Level Estimated
Mon 04:33:00 AM 9.6958 -68.3681 326° Northwest  Level Estimated
Mon 04:34:00 AM 9.8006 -68.4387 326° Northwest  Level Estimated
Mon 04:35:00 AM 9.9055 -68.5093 326° Northwest  Level Estimated
Mon 04:36:00 AM 10.0104 -68.5799 326° Northwest  Level Estimated
Mon 04:37:00 AM 10.1152 -68.6506 326° Northwest  Level Estimated
Mon 04:38:00 AM 10.2201 -68.7214 326° Northwest  Level Estimated
Mon 04:39:00 AM 10.3249 -68.7922 326° Northwest  Level Estimated
Mon 04:40:00 AM 10.4297 -68.8630 326° Northwest  Level Estimated
Mon 04:41:00 AM 10.5345 -68.9339 326° Northwest  Level Estimated
Mon 04:42:00 AM 10.6392 -69.0048 326° Northwest  Level Estimated
Mon 04:43:00 AM 10.7440 -69.0758 326° Northwest  Level Estimated
Mon 04:44:00 AM 10.8487 -69.1469 326° Northwest  Level Estimated
Mon 04:45:00 AM 10.9535 -69.2180 326° Northwest  Level Estimated
Mon 04:46:00 AM 11.0582 -69.2891 326° Northwest  Level Estimated
Mon 04:47:00 AM 11.1629 -69.3603 326° Northwest  Level Estimated
Mon 04:48:00 AM 11.2675 -69.4315 326° Northwest  Level Estimated
Mon 04:49:00 AM 11.3722 -69.5028 326° Northwest  Level Estimated
Mon 04:50:00 AM 11.4768 -69.5742 326° Northwest  Level Estimated
Mon 04:51:00 AM 11.5815 -69.6456 326° Northwest  Level Estimated
Mon 04:52:00 AM 11.6861 -69.7170 326° Northwest  Level Estimated
Mon 04:53:00 AM 11.7906 -69.7885 326° Northwest  Level Estimated
Mon 04:54:00 AM 11.8952 -69.8601 326° Northwest  Level Estimated
Mon 04:55:00 AM 11.9998 -69.9317 326° Northwest  Level Estimated
Mon 04:56:00 AM 12.1043 -70.0033 326° Northwest  Level Estimated
Mon 04:57:00 AM 12.2088 -70.0751 326° Northwest  Level Estimated
Mon 04:58:00 AM 12.3133 -70.1469 326° Northwest  Level Estimated
Mon 04:59:00 AM 12.4178 -70.2187 326° Northwest  Level Estimated
Mon 05:00:00 AM 12.5222 -70.2906 326° Northwest  Level Estimated
Mon 05:01:00 AM 12.6267 -70.3625 326° Northwest  Level Estimated
Mon 05:02:00 AM 12.7311 -70.4346 326° Northwest  Level Estimated
Mon 05:03:00 AM 12.8355 -70.5066 326° Northwest  Level Estimated
Mon 05:04:00 AM 12.9399 -70.5788 326° Northwest  Level Estimated
Mon 05:05:00 AM 13.0442 -70.6509 326° Northwest  Level Estimated
Mon 05:06:00 AM 13.1486 -70.7232 326° Northwest  Level Estimated
Mon 05:07:00 AM 13.2529 -70.7955 326° Northwest  Level Estimated
Mon 05:08:00 AM 13.3572 -70.8679 326° Northwest  Level Estimated
Mon 05:09:00 AM 13.4615 -70.9403 326° Northwest  Level Estimated
Mon 05:10:00 AM 13.5657 -71.0128 326° Northwest  Level Estimated
Mon 05:11:00 AM 13.6700 -71.0854 326° Northwest  Level Estimated
Mon 05:12:00 AM 13.7742 -71.1580 326° Northwest  Level Estimated
Mon 05:13:00 AM 13.8786 -71.2309 326° Northwest  Level Estimated
Mon 05:14:00 AM 13.9830 -71.3038 326° Northwest  Level Estimated
Mon 05:15:00 AM 14.0874 -71.3768 326° Northwest  Level Estimated
Mon 05:16:00 AM 14.1917 -71.4498 326° Northwest  Level Estimated
Mon 05:17:00 AM 14.2960 -71.5229 326° Northwest  Level Estimated
Mon 05:18:00 AM 14.4003 -71.5961 326° Northwest  Level Estimated
Mon 05:19:00 AM 14.5046 -71.6694 326° Northwest  Level Estimated
Mon 05:20:00 AM 14.6089 -71.7427 326° Northwest  Level Estimated
Mon 05:21:00 AM 14.7131 -71.8161 326° Northwest  Level Estimated
Mon 05:22:00 AM 14.8173 -71.8895 326° Northwest  Level Estimated
Mon 05:23:00 AM 14.9215 -71.9631 326° Northwest  Level Estimated
Mon 05:24:00 AM 15.0257 -72.0367 326° Northwest  Level Estimated
Mon 05:25:00 AM 15.1298 -72.1103 326° Northwest  Level Estimated
Mon 05:26:00 AM 15.2339 -72.1841 326° Northwest  Level Estimated
Mon 05:27:00 AM 15.3380 -72.2579 326° Northwest  Level Estimated
Mon 05:28:00 AM 15.4421 -72.3318 326° Northwest  Level Estimated
Mon 05:29:00 AM 15.5461 -72.4058 326° Northwest  Level Estimated
Mon 05:30:00 AM 15.6502 -72.4798 326° Northwest  Level Estimated
Mon 05:31:00 AM 15.7541 -72.5539 326° Northwest  Level Estimated
Mon 05:32:00 AM 15.8581 -72.6281 326° Northwest  Level Estimated
Mon 05:33:00 AM 15.9621 -72.7024 326° Northwest  Level Estimated
Mon 05:34:00 AM 16.0660 -72.7767 325° Northwest  Level Estimated
Mon 05:35:00 AM 16.1699 -72.8512 325° Northwest  Level Estimated
Mon 05:36:00 AM 16.2737 -72.9257 325° Northwest  Level Estimated
Mon 05:37:00 AM 16.3776 -73.0002 325° Northwest  Level Estimated
Mon 05:38:00 AM 16.4814 -73.0749 325° Northwest  Level Estimated
Mon 05:39:00 AM 16.5852 -73.1496 325° Northwest  Level Estimated
Mon 05:39:08 AM 18.7706 -72.1144 325° Northwest 489 563 40,000  Level Miami Center
Mon 05:40:00 AM 16.6889 -73.2245 325° Northwest  Level Estimated
Mon 05:40:08 AM 18.8639 -72.1750 328° Northwest 464 534 40,000  Level Miami Center
Mon 05:41:00 AM 16.7927 -73.2994 325° Northwest  Level Estimated
Mon 05:41:08 AM 18.9664 -72.2592 322° Northwest 456 525 40,000  Level Miami Center
Mon 05:42:00 AM 16.8964 -73.3743 325° Northwest  Level Estimated
Mon 05:42:08 AM 19.0711 -72.3500 321° Northwest 462 532 40,000  Level Miami Center
Mon 05:43:00 AM 17.0000 -73.4494 325° Northwest  Level Estimated
Mon 05:43:08 AM 19.1772 -72.4233 327° Northwest 448 516 40,000  Level Miami Center
Mon 05:44:08 AM 19.2775 -72.5058 322° Northwest 448 516 40,000  Level Miami Center
Mon 05:45:08 AM 19.3694 -72.5886 320° Northwest 462 532 40,000  Level Miami Center
Mon 05:46:08 AM 19.4842 -72.6708 326° Northwest 462 532 40,000 -50 Level Miami Center
Mon 05:47:08 AM 19.5803 -72.7561 320° Northwest 457 526 39,900 -50 Descending Miami Center
Mon 05:48:08 AM 19.6825 -72.8389 323° Northwest 457 526 39,900 50 Level Miami Center
Mon 05:49:08 AM 19.7825 -72.9219 322° Northwest 452 520 40,000  Climbing Miami Center
Mon 05:50:08 AM 19.8847 -73.0050 323° Northwest 452 520 39,900  Descending Miami Center
Mon 05:51:08 AM 19.9847 -73.0883 322° Northwest 452 520 40,000  Climbing Miami Center
Mon 05:52:08 AM 20.0847 -73.1717 322° Northwest 452 520 39,900  Descending Miami Center
Mon 05:53:08 AM 20.1867 -73.2550 323° Northwest 452 520 40,000  Climbing Miami Center
Mon 05:54:08 AM 20.2806 -73.3453 318° Northwest 452 520 39,900  Descending Miami Center
Mon 05:55:08 AM 20.3764 -73.4336 319° Northwest 457 526 40,000  Climbing Miami Center
Mon 05:56:08 AM 20.4636 -73.5156 319° Northwest 457 526 39,900  Descending Miami Center
Mon 05:57:08 AM 20.5617 -73.6042 320° Northwest 457 526 40,000 50 Climbing Miami Center
Mon 05:58:08 AM 20.6572 -73.6950 318° Northwest 457 526 40,000 -50 Level Miami Center
Mon 05:59:08 AM 20.7553 -73.7858 319° Northwest 457 526 39,900 -50 Descending Miami Center
Mon 06:00:08 AM 20.8508 -73.8725 320° Northwest 457 526 39,900 50 Level Miami Center
Mon 06:01:08 AM 20.9464 -73.9614 319° Northwest 457 526 40,000  Climbing Miami Center
Mon 06:02:08 AM 21.0419 -74.0506 319° Northwest 457 526 39,900  Descending Miami Center
Mon 06:03:08 AM 21.1394 -74.1397 320° Northwest 457 526 40,000  Climbing Miami Center
Mon 06:04:08 AM 21.2350 -74.2292 319° Northwest 457 526 39,900 -50 Descending Miami Center
Mon 06:05:08 AM 21.3306 -74.3208 318° Northwest 457 526 39,900  Level Miami Center
Mon 06:06:08 AM 21.4258 -74.4106 319° Northwest 457 526 39,900  Level Miami Center
Mon 06:07:08 AM 21.5233 -74.5025 319° Northwest 457 526 39,900 50 Level Miami Center
Mon 06:08:08 AM 21.6208 -74.5922 319° Northwest 457 526 40,000 50 Climbing Miami Center
Mon 06:09:08 AM 21.7142 -74.6844 317° Northwest 457 526 40,000  Level Miami Center
Mon 06:10:08 AM 21.8158 -74.7881 317° Northwest 457 526 40,000  Level Miami Center
Mon 06:11:08 AM 21.9150 -74.8758 321° Northwest 457 526 40,000  Level Miami Center
Mon 06:12:08 AM 22.0103 -74.9708 317° Northwest 452 520 40,000  Level Miami Center
Mon 06:13:08 AM 22.1053 -75.0614 319° Northwest 452 520 40,000  Level Miami Center
Mon 06:14:08 AM 22.1839 -75.1656 309° West 447 514 40,000  Level Miami Center
Mon 06:15:08 AM 22.2664 -75.2744 309° West 452 520 40,000  Level Miami Center
Mon 06:16:08 AM 22.3447 -75.3836 308° West 465 535 40,000  Level Miami Center
Mon 06:17:08 AM 22.4211 -75.4928 307° West 465 535 40,000  Level Miami Center
Mon 06:18:08 AM 22.5014 -75.6000 309° West 459 528 40,000  Level Miami Center
Mon 06:19:08 AM 22.5794 -75.7094 308° West 459 528 40,000  Level Miami Center
Mon 06:20:08 AM 22.6597 -75.8167 309° West 459 528 40,000  Level Miami Center
Mon 06:21:08 AM 22.7378 -75.9264 308° West 459 528 40,000  Level Miami Center
Mon 06:22:08 AM 22.8200 -76.0364 309° West 459 528 40,000  Level Miami Center
Mon 06:23:08 AM 22.8956 -76.1442 307° West 459 528 40,000  Level Miami Center
Mon 06:24:08 AM 22.9733 -76.2519 308° West 459 528 40,000  Level Miami Center
Mon 06:25:08 AM 23.0533 -76.3622 308° West 459 528 40,000  Level Miami Center
Mon 06:26:08 AM 23.1183 -76.4522 308° West 459 528 40,000  Level Miami Center
Mon 06:27:08 AM 23.2022 -76.5719 307° West 459 528 40,000  Level Miami Center
Mon 06:28:08 AM 23.2817 -76.6803 309° West 459 528 40,000  Level Miami Center
Mon 06:29:08 AM 23.3614 -76.7911 308° West 459 528 40,000  Level Miami Center
Mon 06:30:08 AM 23.4367 -76.8997 307° West 459 528 40,000  Level Miami Center
Mon 06:31:08 AM 23.5181 -77.0086 309° West 459 528 40,000  Level Miami Center
Mon 06:32:08 AM 23.5931 -77.1175 307° West 459 528 40,000  Level Miami Center
Mon 06:33:08 AM 23.6764 -77.2356 308° West 454 522 40,000  Level Miami Center
Mon 06:34:08 AM 23.7556 -77.3492 307° West 459 528 40,000  Level Miami Center
Mon 06:35:08 AM 23.8303 -77.4586 307° West 460 529 40,000  Level Miami Center
Mon 06:36:08 AM 23.9092 -77.5681 308° West 460 529 40,000  Level Miami Center
Mon 06:37:08 AM 23.9881 -77.6844 307° West 460 529 40,000  Level Miami Center
Mon 06:38:08 AM 24.0669 -77.7964 308° West 460 529 40,000  Level Miami Center
Mon 06:39:08 AM 24.1433 -77.9064 307° West 460 529 40,000  Level Miami Center
Mon 06:40:08 AM 24.2219 -78.0211 307° West 465 535 40,000  Level Miami Center
Mon 06:41:08 AM 24.3006 -78.1333 308° West 465 535 40,000  Level Miami Center
Mon 06:42:08 AM 24.3769 -78.2461 307° West 465 535 40,000 -400 Level Miami Center
Mon 06:43:08 AM 24.4572 -78.3589 308° West 465 535 39,200 -1,200 Descending Miami Center
Mon 06:44:08 AM 24.5314 -78.4669 307° West 454 522 37,600 -1,550 Descending Miami Center
Mon 06:45:08 AM 24.5992 -78.5708 306° West 439 505 36,100 -2,500 Descending Miami Center
Mon 06:46:08 AM 24.6753 -78.6769 308° West 434 499 32,600 -3,000 Descending Miami Center
Mon 06:47:08 AM 24.7533 -78.7856 308° West 439 505 30,100 -2,150 Descending Miami Center
Mon 06:48:08 AM 24.8250 -78.8967 305° West 445 512 28,300 -2,100 Descending Miami Center
Mon 06:49:08 AM 24.8989 -78.9917 311° West 450 518 25,900 -2,400 Descending Miami Center
Mon 06:50:08 AM 24.9744 -79.1056 306° West 460 529 23,500 -2,200 Descending Miami Center
Mon 06:51:08 AM 25.0481 -79.2169 306° West 460 529 21,500 -2,350 Descending Miami Center
Mon 06:52:08 AM 25.1194 -79.3214 307° West 447 514 18,800 -2,500 Descending Miami Center
Mon 06:53:08 AM 25.1908 -79.4239 308° West 432 497 16,500 -2,400 Descending Miami Center
Mon 06:54:08 AM 25.2558 -79.5242 306° West 422 486 14,000 -2,612 Descending Miami Center
Mon 06:54:33 AM 25.2903 -79.5822 303° West 401 461 12,800 -2,000 Descending Miami Center
Mon 06:55:08 AM 25.3208 -79.6222 310° West 410 472 12,000 -800 Descending Miami Center
Mon 06:55:33 AM 25.3553 -79.6781 304° West 386 444 12,000 -100 Level Miami Center
Mon 06:56:08 AM 25.3858 -79.7178 310° West 405 466 11,900  Descending Miami Center
Mon 06:56:28 AM 25.4142 -79.7644 304° West 385 443 12,000  Climbing Miami Center
Mon 06:57:08 AM 25.4467 -79.8114 307° West 392 451 11,900 -393 Descending Miami Center
Mon 06:57:29 AM 25.4731 -79.8533 305° West 335 386 11,600 -700 Descending Miami Center
Mon 06:58:08 AM 25.5036 -79.8956 309° West 372 428 11,200 -818 Descending Miami Center
Mon 06:58:35 AM 25.5317 -79.9447 302° West 305 351 10,700 -1,100 Descending Miami Center
Mon 06:59:08 AM 25.5522 -79.9706 311° West 329 379 10,100 -1,574 Descending Miami Center
Mon 06:59:36 AM 25.5761 -80.0172 300° West 294 338 9,100 -1,500 Descending Miami Center
Mon 07:00:08 AM 25.6008 -80.0431 317° Northwest 306 352 8,600 -1,100 Descending Miami Center
Mon 07:00:36 AM 25.6247 -80.0900 299° West 288 331 8,000 -1,100 Descending Miami Center
Mon 07:01:08 AM 25.6472 -80.1136 317° Northwest 292 336 7,500 -885 Descending Miami Center
Mon 07:01:37 AM 25.6628 -80.1600 290° West 265 305 7,100 -900 Descending Miami Center
Mon 07:02:08 AM 25.6769 -80.1836 304° West 275 316 6,600 -1,279 Descending Miami Center
Mon 07:02:38 AM 25.6842 -80.2344 279° West 253 291 5,800 -1,300 Descending Miami Center
Mon 07:03:08 AM 25.6961 -80.2600 297° West 263 303 5,300 -1,375 Descending Miami Center
Mon 07:03:26 AM 25.6994 -80.2969 276° West 256 295 4,700 -1,300 Descending Miami Center
Mon 07:04:08 AM 25.7111 -80.3389 287° West 258 297 4,000 -1,151 Descending Miami Center
Mon 07:04:39 AM 25.7078 -80.3894 266° West 244 281 3,300 -1,163 Descending Miami Center
Mon 07:05:46 AM 25.7528 -80.4278 323° Northwest 221 254 2,100 -947 Descending Miami Center
Mon 07:06:52 AM 25.7997 -80.3900 36° Northeast 183 211 1,200 -677 Descending Miami Center
Mon 07:07:59 AM 25.7967 -80.3414 94° East 120 138 600 -537 Descending Miami Center

Login

Don't have an account? Register now (free) for customized features, flight alerts, and more!